createdAt,value
2023-06-08T00:00:41.082Z,10.42
2023-06-08T00:01:45.215Z,10.39
2023-06-08T00:02:48.300Z,10.37
2023-06-08T00:03:50.787Z,10.34
2023-06-08T00:04:54.075Z,10.34
2023-06-08T00:05:58.803Z,10.32
2023-06-08T00:07:04.706Z,10.31
2023-06-08T00:08:10.267Z,10.29
2023-06-08T00:09:13.289Z,10.23
2023-06-08T00:10:16.590Z,10.16
2023-06-08T00:11:19.433Z,10.14
2023-06-08T00:12:22.116Z,10.10
2023-06-08T00:13:24.959Z,10.08
2023-06-08T00:14:27.254Z,10.06
2023-06-08T00:15:30.096Z,10.04
2023-06-08T00:16:33.927Z,10.02
2023-06-08T00:17:36.913Z,10.02
2023-06-08T00:18:40.398Z,10.01
2023-06-08T00:19:44.370Z,10.01
2023-06-08T00:20:47.712Z,10.02
2023-06-08T00:21:50.515Z,10.00
2023-06-08T00:22:53.069Z,10.01
2023-06-08T00:23:55.970Z,10.02
2023-06-08T00:24:57.781Z,10.01
2023-06-08T00:26:02.955Z,10.01
2023-06-08T00:27:06.826Z,10.00
2023-06-08T00:28:09.816Z,10.00
2023-06-08T00:29:11.682Z,9.98
2023-06-08T00:30:16.942Z,9.96
2023-06-08T00:31:20.481Z,9.95
2023-06-08T00:32:23.679Z,9.95
2023-06-08T00:33:25.583Z,9.92
2023-06-08T00:34:28.960Z,9.91
2023-06-08T00:35:31.076Z,9.89
2023-06-08T00:36:34.014Z,9.86
2023-06-08T00:37:37.044Z,9.83
2023-06-08T00:38:39.877Z,9.83
2023-06-08T00:39:41.774Z,9.82
2023-06-08T00:40:45.519Z,9.76
2023-06-08T00:41:48.866Z,9.72
2023-06-08T00:42:51.763Z,9.67
2023-06-08T00:43:53.639Z,9.65
2023-06-08T00:44:56.430Z,9.64
2023-06-08T00:45:58.488Z,9.64
2023-06-08T00:47:01.464Z,9.63
2023-06-08T00:48:04.197Z,9.62
2023-06-08T00:49:08.678Z,9.60
2023-06-08T00:50:10.835Z,9.58
2023-06-08T00:51:14.008Z,9.59
2023-06-08T00:52:16.699Z,9.58
2023-06-08T00:53:20.858Z,9.59
2023-06-08T00:54:26.975Z,9.57
2023-06-08T00:55:30.763Z,9.57
2023-06-08T00:56:35.326Z,9.56
2023-06-08T00:57:39.480Z,9.56
2023-06-08T00:58:48.007Z,9.56
2023-06-08T00:59:50.789Z,9.56
2023-06-08T01:01:00.407Z,9.53
2023-06-08T01:02:05.271Z,9.47
2023-06-08T01:03:08.284Z,9.41
2023-06-08T01:04:11.055Z,9.38
2023-06-08T01:05:17.475Z,9.36
2023-06-08T01:06:22.061Z,9.35
2023-06-08T01:07:29.776Z,9.33
2023-06-08T01:08:43.805Z,9.33
2023-06-08T01:09:53.037Z,9.33
2023-06-08T01:10:59.310Z,9.32
2023-06-08T01:12:11.409Z,9.31
2023-06-08T01:13:18.561Z,9.31
2023-06-08T01:14:27.487Z,9.28
2023-06-08T01:15:32.926Z,9.27
2023-06-08T01:16:39.437Z,9.24
2023-06-08T01:17:43.854Z,9.23
2023-06-08T01:18:48.482Z,9.21
2023-06-08T01:20:06.792Z,9.18
2023-06-08T01:21:15.318Z,9.14
2023-06-08T01:22:21.817Z,9.13
2023-06-08T01:23:35.708Z,9.13
2023-06-08T01:24:41.432Z,9.13
2023-06-08T01:25:46.899Z,9.12
2023-06-08T01:26:50.536Z,9.12
2023-06-08T01:28:00.204Z,9.14
2023-06-08T01:29:02.487Z,9.13
2023-06-08T01:30:06.027Z,9.12
2023-06-08T01:31:08.015Z,9.11
2023-06-08T01:32:12.938Z,9.11
2023-06-08T01:33:17.697Z,9.11
2023-06-08T01:34:22.525Z,9.10
2023-06-08T01:35:24.381Z,9.09
2023-06-08T01:36:29.308Z,9.08
2023-06-08T01:37:36.840Z,9.09
2023-06-08T01:38:45.553Z,9.08
2023-06-08T01:39:53.257Z,9.08
2023-06-08T01:40:57.336Z,9.09
2023-06-08T01:42:01.580Z,9.11
2023-06-08T01:43:06.495Z,9.11
2023-06-08T01:44:09.870Z,9.12
2023-06-08T01:45:17.973Z,9.14
2023-06-08T01:46:21.453Z,9.16
2023-06-08T01:49:08.739Z,9.11
2023-06-08T01:50:11.660Z,9.08
2023-06-08T01:51:15.752Z,9.05
2023-06-08T01:52:17.683Z,9.04
2023-06-08T01:53:20.667Z,9.00
2023-06-08T01:54:23.007Z,8.97
2023-06-08T01:55:29.122Z,8.94
2023-06-08T01:56:31.987Z,8.90
2023-06-08T01:57:34.799Z,8.88
2023-06-08T01:58:36.799Z,8.88
2023-06-08T01:59:39.754Z,8.86
2023-06-08T02:00:41.622Z,8.86
2023-06-08T02:01:44.602Z,8.85
2023-06-08T02:02:48.085Z,8.84
2023-06-08T02:03:51.086Z,8.83
2023-06-08T02:04:53.036Z,8.83
2023-06-08T02:05:56.024Z,8.84
2023-06-08T02:06:57.884Z,8.86
2023-06-08T02:08:01.383Z,8.88
2023-06-08T02:09:03.819Z,8.89
2023-06-08T02:10:07.953Z,8.91
2023-06-08T02:11:14.069Z,8.93
2023-06-08T02:12:16.930Z,8.92
2023-06-08T02:13:18.752Z,8.92
2023-06-08T02:14:21.574Z,8.95
2023-06-08T02:15:26.409Z,8.96
2023-06-08T02:16:29.242Z,8.98
2023-06-08T02:17:34.731Z,9.01
2023-06-08T02:18:41.621Z,9.04
2023-06-08T02:19:43.519Z,9.08
2023-06-08T02:20:46.323Z,9.10
2023-06-08T02:21:48.175Z,9.14
2023-06-08T02:22:53.755Z,9.19
2023-06-08T02:23:55.630Z,9.21
2023-06-08T02:24:58.491Z,9.25
2023-06-08T02:26:00.431Z,9.28
2023-06-08T02:27:04.984Z,9.30
2023-06-08T02:28:06.991Z,9.31
2023-06-08T02:29:09.798Z,9.34
2023-06-08T02:30:13.263Z,9.37
2023-06-08T02:31:16.218Z,9.37
2023-06-08T02:32:18.079Z,9.34
2023-06-08T02:33:21.607Z,9.35
2023-06-08T02:34:24.418Z,9.33
2023-06-08T02:35:27.324Z,9.34
2023-06-08T02:36:32.896Z,9.36
2023-06-08T02:37:37.981Z,9.36
2023-06-08T02:38:40.031Z,9.36
2023-06-08T02:39:44.323Z,9.36
2023-06-08T02:40:46.270Z,9.37
2023-06-08T02:41:50.812Z,9.40
2023-06-08T02:42:54.051Z,9.42
2023-06-08T02:43:59.787Z,9.45
2023-06-08T02:45:02.720Z,9.48
2023-06-08T02:46:05.768Z,9.50
2023-06-08T02:47:08.967Z,9.53
2023-06-08T02:48:11.842Z,9.55
2023-06-08T02:49:13.775Z,9.57
2023-06-08T02:50:16.673Z,9.60
2023-06-08T02:51:20.150Z,9.58
2023-06-08T02:52:23.641Z,9.55
2023-06-08T02:53:25.535Z,9.56
2023-06-08T02:54:28.358Z,9.56
2023-06-08T02:55:36.152Z,9.56
2023-06-08T02:56:42.966Z,9.56
2023-06-08T02:57:45.012Z,9.61
2023-06-08T02:58:50.767Z,9.64
2023-06-08T02:59:53.705Z,9.68
2023-06-08T03:01:11.804Z,9.72
2023-06-08T03:02:45.270Z,9.74
2023-06-08T03:03:48.475Z,9.76
2023-06-08T03:04:54.553Z,9.79
2023-06-08T03:06:00.248Z,9.81
2023-06-08T03:07:10.539Z,9.81
2023-06-08T03:08:14.985Z,9.79
2023-06-08T03:09:18.837Z,9.78
2023-06-08T03:10:27.617Z,9.77
2023-06-08T03:11:29.656Z,9.79
2023-06-08T03:12:32.488Z,9.79
2023-06-08T03:13:36.301Z,9.81
2023-06-08T03:14:41.838Z,9.81
2023-06-08T03:15:46.135Z,9.82
2023-06-08T03:16:49.690Z,9.84
2023-06-08T03:17:53.024Z,9.86
2023-06-08T03:18:57.424Z,9.89
2023-06-08T03:20:01.065Z,9.90
2023-06-08T03:21:06.047Z,9.93
2023-06-08T03:22:08.632Z,9.94
2023-06-08T03:23:33.329Z,9.95
2023-06-08T03:24:37.574Z,9.94
2023-06-08T03:25:40.500Z,9.93
2023-06-08T03:26:44.986Z,9.94
2023-06-08T03:27:49.295Z,9.94
2023-06-08T03:28:51.716Z,9.97
2023-06-08T03:29:56.399Z,9.99
2023-06-08T03:31:02.346Z,10.05
2023-06-08T03:32:13.641Z,10.07
2023-06-08T03:33:17.016Z,10.10
2023-06-08T03:34:27.267Z,10.12
2023-06-08T03:35:34.135Z,10.18
2023-06-08T03:36:51.864Z,10.25
2023-06-08T03:37:57.714Z,10.33
2023-06-08T03:39:00.538Z,10.41
2023-06-08T03:40:02.567Z,10.50
2023-06-08T03:41:06.766Z,10.61
2023-06-08T03:42:09.386Z,10.71
2023-06-08T03:43:16.122Z,10.82
2023-06-08T03:44:18.636Z,10.92
2023-06-08T03:45:23.961Z,11.02
2023-06-08T03:46:28.597Z,11.09
2023-06-08T03:47:33.444Z,11.16
2023-06-08T03:48:36.528Z,11.20
2023-06-08T03:49:40.398Z,11.25
2023-06-08T03:50:45.309Z,11.31
2023-06-08T03:51:49.109Z,11.35
2023-06-08T03:52:51.170Z,11.37
2023-06-08T03:53:54.199Z,11.39
2023-06-08T03:54:57.189Z,11.41
2023-06-08T03:56:00.094Z,11.41
2023-06-08T03:57:02.764Z,11.39
2023-06-08T03:58:06.196Z,11.39
2023-06-08T03:59:08.283Z,11.40
2023-06-08T04:00:12.709Z,11.42
2023-06-08T04:01:18.897Z,11.44
2023-06-08T04:02:21.935Z,11.49
2023-06-08T04:03:26.098Z,11.53
2023-06-08T04:04:30.515Z,11.57
2023-06-08T04:05:33.406Z,11.61
2023-06-08T04:06:39.614Z,11.65
2023-06-08T04:07:43.177Z,11.70
2023-06-08T04:08:46.460Z,11.76
2023-06-08T04:09:48.576Z,11.82
2023-06-08T04:10:51.386Z,11.87
2023-06-08T04:11:53.447Z,11.92
2023-06-08T04:12:59.485Z,12.00
2023-06-08T04:14:01.386Z,12.11
2023-06-08T04:15:04.953Z,12.24
2023-06-08T04:16:09.862Z,12.37
2023-06-08T04:17:17.596Z,12.50
2023-06-08T04:18:19.808Z,12.62
2023-06-08T04:19:22.675Z,12.72
2023-06-08T04:20:24.526Z,12.82
2023-06-08T04:21:28.430Z,12.93
2023-06-08T04:22:36.321Z,13.01
2023-06-08T04:23:39.680Z,13.07
2023-06-08T04:24:43.542Z,13.13
2023-06-08T04:25:47.208Z,13.18
2023-06-08T04:26:49.202Z,13.25
2023-06-08T04:27:53.075Z,13.33
2023-06-08T04:28:56.678Z,13.47
2023-06-08T04:30:05.550Z,13.67
2023-06-08T04:31:09.254Z,13.92
2023-06-08T04:32:12.736Z,14.14
2023-06-08T04:33:16.223Z,14.37
2023-06-08T04:34:19.906Z,14.59
2023-06-08T04:35:22.503Z,14.80
2023-06-08T04:36:25.506Z,15.03
2023-06-08T04:37:29.239Z,15.28
2023-06-08T04:38:31.234Z,15.52
2023-06-08T04:39:35.055Z,15.77
2023-06-08T04:40:38.531Z,16.03
2023-06-08T04:41:42.503Z,16.27
2023-06-08T04:42:45.635Z,16.50
2023-06-08T04:43:50.685Z,16.68
2023-06-08T04:45:00.738Z,16.87
2023-06-08T04:46:06.240Z,17.06
2023-06-08T04:47:10.122Z,17.23
2023-06-08T04:48:13.324Z,17.34
2023-06-08T04:49:17.717Z,17.48
2023-06-08T04:50:19.693Z,17.65
2023-06-08T04:51:24.729Z,17.79
2023-06-08T04:52:31.192Z,17.93
2023-06-08T04:53:34.818Z,18.06
2023-06-08T04:54:38.353Z,18.16
2023-06-08T04:55:46.335Z,18.20
2023-06-08T04:56:49.187Z,18.20
2023-06-08T04:57:51.174Z,18.21
2023-06-08T04:58:53.958Z,18.21
2023-06-08T04:59:55.913Z,18.20
2023-06-08T05:00:59.523Z,18.16
2023-06-08T05:02:02.530Z,18.09
2023-06-08T05:03:05.618Z,17.99
2023-06-08T05:04:09.049Z,17.92
2023-06-08T05:05:14.078Z,17.83
2023-06-08T05:06:16.024Z,17.70
2023-06-08T05:07:18.860Z,17.61
2023-06-08T05:08:20.723Z,17.48
2023-06-08T05:09:23.639Z,17.38
2023-06-08T05:10:25.448Z,17.33
2023-06-08T05:11:28.272Z,17.28
2023-06-08T05:12:30.121Z,17.22
2023-06-08T05:13:32.926Z,17.16
2023-06-08T05:14:34.762Z,17.10
2023-06-08T05:15:37.555Z,17.06
2023-06-08T05:16:39.511Z,17.03
2023-06-08T05:17:42.389Z,17.02
2023-06-08T05:18:44.424Z,17.07
2023-06-08T05:19:47.252Z,17.13
2023-06-08T05:20:50.431Z,17.17
2023-06-08T05:21:53.276Z,17.23
2023-06-08T05:22:55.110Z,17.35
2023-06-08T05:23:57.875Z,17.54
2023-06-08T05:24:59.786Z,17.69
2023-06-08T05:26:02.591Z,17.90
2023-06-08T05:27:05.299Z,18.10
2023-06-08T05:28:08.179Z,18.28
2023-06-08T05:29:09.972Z,18.48
2023-06-08T05:30:13.341Z,18.70
2023-06-08T05:31:15.409Z,18.94
2023-06-08T05:32:18.219Z,19.18
2023-06-08T05:33:20.084Z,19.42
2023-06-08T05:34:22.924Z,19.60
2023-06-08T05:35:25.060Z,19.78
2023-06-08T05:36:29.199Z,19.95
2023-06-08T05:37:32.087Z,20.12
2023-06-08T05:38:33.967Z,20.28
2023-06-08T05:39:36.726Z,20.41
2023-06-08T05:40:38.634Z,20.55
2023-06-08T05:41:41.414Z,20.63
2023-06-08T05:42:43.273Z,20.70
2023-06-08T05:43:46.104Z,20.80
2023-06-08T05:44:47.986Z,20.89
2023-06-08T05:45:50.858Z,21.00
2023-06-08T05:46:52.716Z,21.15
2023-06-08T05:47:55.672Z,21.23
2023-06-08T05:48:57.595Z,21.38
2023-06-08T05:50:00.523Z,21.49
2023-06-08T05:51:02.555Z,21.62
2023-06-08T05:52:07.291Z,21.73
2023-06-08T05:53:10.179Z,21.88
2023-06-08T05:54:11.988Z,22.00
2023-06-08T05:55:14.777Z,22.09
2023-06-08T05:56:16.626Z,22.21
2023-06-08T05:57:19.434Z,22.28
2023-06-08T05:58:26.288Z,22.37
2023-06-08T05:59:33.826Z,22.44
2023-06-08T06:00:36.342Z,22.53
2023-06-08T06:01:39.175Z,22.59
2023-06-08T06:02:41.502Z,22.66
2023-06-08T06:03:44.623Z,22.65
2023-06-08T06:04:46.747Z,22.72
2023-06-08T06:05:50.281Z,22.75
2023-06-08T06:06:52.092Z,22.78
2023-06-08T06:07:56.219Z,22.82
2023-06-08T06:08:58.125Z,22.87
2023-06-08T06:10:01.004Z,22.95
2023-06-08T06:11:02.953Z,23.06
2023-06-08T06:12:08.448Z,23.08
2023-06-08T06:13:11.240Z,23.10
2023-06-08T06:14:13.079Z,23.12
2023-06-08T06:15:15.923Z,23.13
2023-06-08T06:16:19.581Z,23.17
2023-06-08T06:17:21.770Z,23.14
2023-06-08T06:18:24.719Z,23.10
2023-06-08T06:19:26.613Z,23.07
2023-06-08T06:20:30.923Z,23.14
2023-06-08T06:21:32.803Z,23.21
2023-06-08T06:22:35.673Z,23.25
2023-06-08T06:23:39.129Z,23.22
2023-06-08T06:24:42.107Z,23.37
2023-06-08T06:25:44.206Z,23.58
2023-06-08T06:26:46.989Z,23.73
2023-06-08T06:27:48.932Z,23.84
2023-06-08T06:28:51.697Z,24.00
2023-06-08T06:29:53.958Z,24.16
2023-06-08T06:30:56.799Z,24.28
2023-06-08T06:31:59.147Z,24.46
2023-06-08T06:33:02.108Z,24.62
2023-06-08T06:34:04.146Z,24.74
2023-06-08T06:35:08.081Z,24.92
2023-06-08T06:36:09.886Z,25.09
2023-06-08T06:37:12.697Z,25.13
2023-06-08T06:38:14.592Z,25.08
2023-06-08T06:39:19.916Z,25.03
2023-06-08T06:40:21.946Z,25.04
2023-06-08T06:41:24.706Z,25.02
2023-06-08T06:42:26.557Z,25.01
2023-06-08T06:43:37.332Z,25.04
2023-06-08T06:44:41.360Z,25.04
2023-06-08T06:45:45.035Z,24.95
2023-06-08T06:46:47.212Z,24.97
2023-06-08T06:47:50.076Z,25.04
2023-06-08T06:48:52.198Z,25.10
2023-06-08T06:49:55.032Z,25.08
2023-06-08T06:50:56.873Z,25.03
2023-06-08T06:51:59.677Z,25.06
2023-06-08T06:53:01.570Z,25.08
2023-06-08T06:54:04.741Z,25.08
2023-06-08T06:55:09.205Z,25.19
2023-06-08T06:56:11.255Z,25.35
2023-06-08T06:57:14.014Z,25.45
2023-06-08T06:58:16.206Z,25.50
2023-06-08T06:59:21.497Z,25.49
2023-06-08T07:00:25.002Z,25.45
2023-06-08T07:01:27.961Z,25.47
2023-06-08T07:02:29.930Z,25.50
2023-06-08T07:03:32.889Z,25.54
2023-06-08T07:04:34.741Z,25.56
2023-06-08T07:05:38.288Z,25.52
2023-06-08T07:06:42.707Z,25.47
2023-06-08T07:07:45.727Z,25.49
2023-06-08T07:08:47.571Z,25.53
2023-06-08T07:09:50.355Z,25.60
2023-06-08T07:10:53.501Z,25.63
2023-06-08T07:12:13.593Z,25.67
2023-06-08T07:13:18.258Z,25.81
2023-06-08T07:14:20.073Z,25.86
2023-06-08T07:15:22.953Z,25.91
2023-06-08T07:16:27.751Z,25.83
2023-06-08T07:17:30.863Z,25.58
2023-06-08T07:18:33.052Z,25.50
2023-06-08T07:19:36.055Z,25.44
2023-06-08T07:20:38.393Z,25.43
2023-06-08T07:21:49.397Z,25.55
2023-06-08T07:22:57.366Z,25.53
2023-06-08T07:24:25.835Z,25.51
2023-06-08T07:26:25.190Z,25.59
2023-06-08T07:26:57.444Z,25.60
2023-06-08T07:27:59.344Z,25.56
2023-06-08T07:29:04.137Z,25.51
2023-06-08T07:30:08.279Z,25.38
2023-06-08T07:31:10.422Z,25.36
2023-06-08T07:32:13.436Z,25.38
2023-06-08T07:33:15.318Z,25.37
2023-06-08T07:34:18.170Z,25.41
2023-06-08T07:35:21.732Z,25.43
2023-06-08T07:36:24.650Z,25.46
2023-06-08T07:37:26.526Z,25.40
2023-06-08T07:38:29.404Z,25.31
2023-06-08T07:39:31.243Z,25.37
2023-06-08T07:40:34.066Z,25.40
2023-06-08T07:41:35.987Z,25.38
2023-06-08T07:42:40.122Z,25.33
2023-06-08T07:43:41.993Z,25.27
2023-06-08T07:44:44.846Z,25.33
2023-06-08T07:45:46.650Z,25.44
2023-06-08T07:46:49.506Z,25.56
2023-06-08T07:47:51.372Z,25.69
2023-06-08T07:48:54.190Z,25.89
2023-06-08T07:49:57.023Z,26.09
2023-06-08T07:50:59.918Z,26.12
2023-06-08T07:52:01.732Z,26.09
2023-06-08T07:53:04.509Z,26.05
2023-06-08T07:54:07.360Z,26.05
2023-06-08T07:55:10.045Z,26.03
2023-06-08T07:56:12.873Z,26.02
2023-06-08T07:57:15.682Z,26.05
2023-06-08T07:58:18.867Z,26.02
2023-06-08T07:59:21.779Z,25.93
2023-06-08T08:00:24.652Z,25.88
2023-06-08T08:01:28.370Z,25.84
2023-06-08T08:02:30.403Z,25.76
2023-06-08T08:03:38.657Z,25.72
2023-06-08T08:04:41.762Z,25.66
2023-06-08T08:05:44.606Z,25.66
2023-06-08T08:06:46.652Z,25.66
2023-06-08T08:07:49.458Z,25.64
2023-06-08T08:08:51.477Z,25.49
2023-06-08T08:09:54.326Z,25.16
2023-06-08T08:10:57.115Z,24.87
2023-06-08T08:11:59.924Z,24.66
2023-06-08T08:13:01.775Z,24.66
2023-06-08T08:14:10.400Z,24.60
2023-06-08T08:15:12.302Z,24.49
2023-06-08T08:16:15.472Z,24.47
2023-06-08T08:17:17.337Z,24.58
2023-06-08T08:18:20.577Z,24.56
2023-06-08T08:19:23.565Z,24.36
2023-06-08T08:20:25.468Z,24.16
2023-06-08T08:21:28.246Z,24.04
2023-06-08T08:22:30.097Z,23.99
2023-06-08T08:23:32.963Z,23.95
2023-06-08T08:24:34.840Z,23.97
2023-06-08T08:25:37.733Z,24.02
2023-06-08T08:26:41.731Z,23.99
2023-06-08T08:27:44.572Z,23.99
2023-06-08T08:28:48.201Z,24.22
2023-06-08T08:29:52.376Z,24.59
2023-06-08T08:30:55.299Z,24.97
2023-06-08T08:31:58.319Z,25.45
2023-06-08T08:33:00.277Z,25.75
2023-06-08T08:34:03.092Z,25.97
2023-06-08T08:35:06.917Z,26.16
2023-06-08T08:36:08.732Z,26.13
2023-06-08T08:37:11.512Z,26.00
2023-06-08T08:38:13.385Z,25.84
2023-06-08T08:39:16.943Z,25.64
2023-06-08T08:40:18.828Z,25.39
2023-06-08T08:41:22.553Z,25.38
2023-06-08T08:42:26.370Z,25.53
2023-06-08T08:43:39.586Z,25.55
2023-06-08T08:44:43.617Z,25.56
2023-06-08T08:45:47.031Z,25.61
2023-06-08T08:46:51.113Z,25.43
2023-06-08T08:47:54.644Z,25.22
2023-06-08T08:48:59.324Z,25.16
2023-06-08T08:50:07.628Z,25.17
2023-06-08T08:51:14.467Z,25.18
2023-06-08T08:52:20.418Z,25.31
2023-06-08T08:53:28.569Z,25.40
2023-06-08T08:54:34.916Z,25.48
2023-06-08T08:55:37.760Z,25.43
2023-06-08T08:56:40.724Z,25.31
2023-06-08T08:57:42.881Z,25.17
2023-06-08T08:58:46.157Z,25.11
2023-06-08T08:59:48.177Z,24.90
2023-06-08T09:00:53.110Z,24.83
2023-06-08T09:01:55.045Z,24.89
2023-06-08T09:02:57.958Z,24.99
2023-06-08T09:03:59.893Z,24.95
2023-06-08T09:05:04.961Z,24.94
2023-06-08T09:06:06.850Z,24.92
2023-06-08T09:07:09.627Z,25.04
2023-06-08T09:08:11.944Z,25.13
2023-06-08T09:09:14.732Z,25.28
2023-06-08T09:10:19.172Z,25.63
2023-06-08T09:11:22.396Z,26.05
2023-06-08T09:12:24.594Z,26.34
2023-06-08T09:13:27.497Z,26.57
2023-06-08T09:14:30.258Z,26.94
2023-06-08T09:15:35.131Z,27.11
2023-06-08T09:16:44.443Z,27.21
2023-06-08T09:17:50.228Z,27.17
2023-06-08T09:19:07.762Z,27.17
2023-06-08T09:20:11.450Z,27.41
2023-06-08T09:21:24.063Z,27.68
2023-06-08T09:22:29.313Z,27.80
2023-06-08T09:23:33.810Z,27.95
2023-06-08T09:24:37.066Z,28.00
2023-06-08T09:25:39.331Z,27.97
2023-06-08T09:26:47.133Z,28.05
2023-06-08T09:27:49.096Z,28.21
2023-06-08T09:28:51.896Z,28.39
2023-06-08T09:29:55.302Z,28.61
2023-06-08T09:30:59.273Z,28.77
2023-06-08T09:32:02.738Z,28.89
2023-06-08T09:33:20.435Z,29.01
2023-06-08T09:34:22.853Z,28.97
2023-06-08T09:35:26.068Z,28.92
2023-06-08T09:36:28.110Z,28.89
2023-06-08T09:37:31.696Z,28.90
2023-06-08T09:38:34.989Z,28.92
2023-06-08T09:39:41.101Z,28.99
2023-06-08T09:40:43.976Z,28.98
2023-06-08T09:41:57.741Z,28.99
2023-06-08T09:42:59.609Z,29.01
2023-06-08T09:44:02.789Z,29.09
2023-06-08T09:45:09.208Z,29.17
2023-06-08T09:46:17.308Z,29.26
2023-06-08T09:47:26.625Z,29.45
2023-06-08T09:48:28.837Z,29.61
2023-06-08T09:49:31.864Z,29.86
2023-06-08T09:50:33.710Z,30.04
2023-06-08T09:51:37.693Z,30.00
2023-06-08T09:52:41.899Z,29.87
2023-06-08T09:53:44.646Z,29.68
2023-06-08T09:54:48.260Z,29.59
2023-06-08T09:55:51.287Z,29.62
2023-06-08T09:56:55.999Z,29.65
2023-06-08T09:57:58.899Z,29.65
2023-06-08T09:59:06.112Z,29.63
2023-06-08T10:00:15.648Z,29.72
2023-06-08T10:01:19.297Z,29.71
2023-06-08T10:02:26.961Z,29.66
2023-06-08T10:03:31.418Z,29.65
2023-06-08T10:04:37.664Z,29.70
2023-06-08T10:05:45.035Z,29.77
2023-06-08T10:06:48.263Z,29.77
2023-06-08T10:07:54.531Z,29.81
2023-06-08T10:08:57.487Z,29.93
2023-06-08T10:10:05.556Z,29.93
2023-06-08T10:11:11.416Z,29.79
2023-06-08T10:12:14.806Z,29.47
2023-06-08T10:13:17.087Z,29.42
2023-06-08T10:14:20.063Z,29.40
2023-06-08T10:15:23.479Z,29.45
2023-06-08T10:16:26.443Z,29.59
2023-06-08T10:17:31.627Z,29.83
2023-06-08T10:18:35.584Z,30.01
2023-06-08T10:19:37.499Z,30.30
2023-06-08T10:20:40.558Z,30.36
2023-06-08T10:21:42.744Z,30.36
2023-06-08T10:22:46.358Z,30.20
2023-06-08T10:23:48.325Z,30.02
2023-06-08T10:25:08.014Z,30.01
2023-06-08T10:26:13.806Z,30.07
2023-06-08T10:27:19.260Z,30.20
2023-06-08T10:28:22.489Z,30.38
2023-06-08T10:29:28.212Z,30.41
2023-06-08T10:30:32.641Z,30.42
2023-06-08T10:31:35.716Z,30.42
2023-06-08T10:32:43.587Z,30.41
2023-06-08T10:33:45.439Z,30.37
2023-06-08T10:34:51.460Z,30.51
2023-06-08T10:36:04.215Z,30.62
2023-06-08T10:37:07.169Z,30.65
2023-06-08T10:38:10.177Z,30.50
2023-06-08T10:39:15.326Z,30.24
2023-06-08T10:40:19.641Z,30.11
2023-06-08T10:41:38.577Z,29.90
2023-06-08T10:42:52.594Z,29.62
2023-06-08T10:43:59.518Z,29.54
2023-06-08T10:45:03.937Z,29.47
2023-06-08T10:46:06.047Z,29.58
2023-06-08T10:47:09.880Z,29.72
2023-06-08T10:48:20.365Z,29.94
2023-06-08T10:49:22.329Z,29.93
2023-06-08T10:50:25.570Z,29.72
2023-06-08T10:51:27.576Z,29.55
2023-06-08T10:52:31.227Z,29.42
2023-06-08T10:53:56.454Z,29.18
2023-06-08T10:55:01.154Z,28.93
2023-06-08T10:56:03.030Z,28.70
2023-06-08T10:57:15.108Z,28.51
2023-06-08T10:58:20.231Z,28.24
2023-06-08T10:59:35.015Z,27.89
2023-06-08T11:00:45.308Z,27.57
2023-06-08T11:01:47.461Z,27.29
2023-06-08T11:02:50.668Z,27.16
2023-06-08T11:03:59.647Z,27.34
2023-06-08T11:05:03.669Z,27.58
2023-06-08T11:06:14.839Z,27.78
2023-06-08T11:07:20.911Z,28.00
2023-06-08T11:08:24.060Z,28.25
2023-06-08T11:09:25.974Z,28.57
2023-06-08T11:10:29.251Z,28.78
2023-06-08T11:11:32.647Z,28.95
2023-06-08T11:12:34.540Z,29.02
2023-06-08T11:13:37.328Z,29.00
2023-06-08T11:14:39.137Z,28.91
2023-06-08T11:15:45.148Z,28.79
2023-06-08T11:16:49.554Z,28.64
2023-06-08T11:17:56.378Z,28.44
2023-06-08T11:19:00.679Z,28.14
2023-06-08T11:20:05.320Z,27.95
2023-06-08T11:21:08.145Z,27.91
2023-06-08T11:22:10.040Z,27.96
2023-06-08T11:23:14.182Z,27.96
2023-06-08T11:24:16.578Z,27.92
2023-06-08T11:25:20.424Z,27.94
2023-06-08T11:26:23.789Z,27.83
2023-06-08T11:27:26.656Z,27.68
2023-06-08T11:28:28.831Z,27.53
2023-06-08T11:29:31.959Z,27.33
2023-06-08T11:30:34.720Z,27.12
2023-06-08T11:31:41.439Z,26.90
2023-06-08T11:32:44.665Z,26.69
2023-06-08T11:33:49.311Z,26.44
2023-06-08T11:34:54.288Z,26.22
2023-06-08T11:35:57.174Z,26.10
2023-06-08T11:36:59.194Z,26.01
2023-06-08T11:38:02.671Z,25.94
2023-06-08T11:39:04.534Z,25.82
2023-06-08T11:40:12.150Z,25.73
2023-06-08T11:41:15.560Z,25.65
2023-06-08T11:42:17.450Z,25.57
2023-06-08T11:43:22.355Z,25.50
2023-06-08T11:44:26.899Z,25.45
2023-06-08T11:45:30.284Z,25.43
2023-06-08T11:46:33.845Z,25.41
2023-06-08T11:47:36.830Z,25.48
2023-06-08T11:48:41.856Z,25.62
2023-06-08T11:49:55.316Z,25.83
2023-06-08T11:50:58.169Z,25.95
2023-06-08T11:51:59.994Z,26.13
2023-06-08T11:53:03.672Z,26.29
2023-06-08T11:54:05.687Z,26.39
2023-06-08T11:55:13.013Z,26.48
2023-06-08T11:56:14.861Z,26.61
2023-06-08T11:57:17.718Z,26.70
2023-06-08T11:58:24.437Z,26.68
2023-06-08T11:59:27.943Z,26.63
2023-06-08T12:00:32.338Z,26.53
2023-06-08T12:01:36.267Z,26.58
2023-06-08T12:02:39.270Z,26.61
2023-06-08T12:03:45.091Z,26.62
2023-06-08T12:04:47.516Z,26.63
2023-06-08T12:05:58.929Z,26.60
2023-06-08T12:07:10.559Z,26.56
2023-06-08T12:08:15.653Z,26.57
2023-06-08T12:09:18.576Z,26.58
2023-06-08T12:10:20.479Z,26.53
2023-06-08T12:11:25.856Z,26.40
2023-06-08T12:12:30.359Z,26.37
2023-06-08T12:13:33.147Z,26.36
2023-06-08T12:14:35.180Z,26.32
2023-06-08T12:15:39.256Z,26.26
2023-06-08T12:16:44.121Z,26.11
2023-06-08T12:17:47.588Z,26.02
2023-06-08T12:18:50.483Z,25.98
2023-06-08T12:19:55.605Z,25.90
2023-06-08T12:20:59.710Z,25.85
2023-06-08T12:22:02.018Z,25.84
2023-06-08T12:23:05.890Z,25.86
2023-06-08T12:24:07.949Z,25.87
2023-06-08T12:25:10.954Z,25.85
2023-06-08T12:26:14.715Z,25.88
2023-06-08T12:27:16.562Z,25.87
2023-06-08T12:28:20.112Z,25.86
2023-06-08T12:29:23.507Z,25.91
2023-06-08T12:30:25.725Z,25.94
2023-06-08T12:31:29.144Z,25.98
2023-06-08T12:32:33.281Z,26.00
2023-06-08T12:33:36.302Z,25.98
2023-06-08T12:34:38.145Z,26.00
2023-06-08T12:35:41.670Z,25.96
2023-06-08T12:36:44.880Z,25.88
2023-06-08T12:37:50.084Z,25.81
2023-06-08T12:38:52.071Z,25.74
2023-06-08T12:39:55.000Z,25.72
2023-06-08T12:40:58.881Z,25.72
2023-06-08T12:42:01.025Z,25.75
2023-06-08T12:43:03.876Z,25.79
2023-06-08T12:44:05.725Z,25.83
2023-06-08T12:45:09.673Z,25.85
2023-06-08T12:46:12.077Z,25.82
2023-06-08T12:47:15.289Z,25.78
2023-06-08T12:48:17.254Z,25.67
2023-06-08T12:49:20.061Z,25.66
2023-06-08T12:50:23.717Z,25.64
2023-06-08T12:51:26.726Z,25.64
2023-06-08T12:58:07.517Z,25.35
2023-06-08T12:59:10.113Z,25.30
2023-06-08T13:00:13.995Z,25.30
2023-06-08T13:01:15.872Z,25.31
2023-06-08T13:02:20.496Z,25.35
2023-06-08T13:03:24.317Z,25.31
2023-06-08T13:04:30.067Z,25.32
2023-06-08T13:05:33.393Z,25.34
2023-06-08T13:06:36.400Z,25.39
2023-06-08T13:07:39.011Z,25.46
2023-06-08T13:08:41.990Z,25.58
2023-06-08T13:09:43.813Z,25.77
2023-06-08T13:10:46.622Z,25.91
2023-06-08T13:11:48.642Z,26.03
2023-06-08T13:12:51.503Z,26.13
2023-06-08T13:13:54.693Z,26.25
2023-06-08T13:14:57.705Z,26.40
2023-06-08T13:16:01.181Z,26.62
2023-06-08T13:17:04.159Z,26.93
2023-06-08T13:18:08.187Z,27.30
2023-06-08T13:19:11.181Z,27.64
2023-06-08T13:20:13.879Z,27.76
2023-06-08T13:21:17.359Z,27.81
2023-06-08T13:22:19.742Z,27.74
2023-06-08T13:23:25.409Z,27.57
2023-06-08T13:24:28.378Z,27.36
2023-06-08T13:25:30.650Z,27.12
2023-06-08T13:26:33.739Z,26.90
2023-06-08T13:27:35.613Z,26.69
2023-06-08T13:28:39.469Z,26.46
2023-06-08T13:29:49.201Z,26.26
2023-06-08T13:30:52.017Z,26.11
2023-06-08T13:31:54.769Z,25.99
2023-06-08T13:33:00.749Z,25.86
2023-06-08T13:34:03.424Z,25.71
2023-06-08T13:35:06.943Z,25.61
2023-06-08T13:36:08.774Z,25.55
2023-06-08T13:37:13.173Z,25.61
2023-06-08T13:38:16.079Z,25.87
2023-06-08T13:39:18.997Z,26.17
2023-06-08T13:40:21.471Z,26.50
2023-06-08T13:41:24.271Z,26.86
2023-06-08T13:42:26.328Z,27.16
2023-06-08T13:43:29.710Z,27.39
2023-06-08T13:44:32.777Z,27.53
2023-06-08T13:45:37.311Z,27.62
2023-06-08T13:46:40.483Z,27.51
2023-06-08T13:47:43.457Z,27.25
2023-06-08T13:48:45.323Z,27.01
2023-06-08T13:49:48.155Z,26.81
2023-06-08T13:50:49.955Z,26.65
2023-06-08T13:51:53.592Z,26.57
2023-06-08T13:52:58.070Z,26.58
2023-06-08T13:54:04.015Z,26.60
2023-06-08T13:55:06.762Z,26.70
2023-06-08T13:56:10.380Z,26.96
2023-06-08T13:57:13.176Z,27.22
2023-06-08T13:58:15.197Z,27.48
2023-06-08T13:59:18.092Z,27.79